Time;durP1;ratioP1;P1;durP2;ratioP2;P2;SDS_P1;SDS_P2;PMS_P1;PMS_P2;Temp;Humidity;BMP_temperature;BMP_pressure;BME280_temperature;BME280_humidity;BME280_pressure;Samples;Min_cycle;Max_cycle;Signal;HPM_P1;HPM_P2
2021/05/14 00:00:10;;;;;;;1.95;0.40;;;13.70;99.90;;;;;;4972303;28;20065;-63
2021/05/14 00:02:39;;;;;;;1.80;0.52;;;13.80;99.90;;;;;;4972687;28;20113;-64
2021/05/14 00:05:06;;;;;;;0.95;0.60;;;13.80;99.90;;;;;;4954464;28;20396;-64
2021/05/14 00:07:31;;;;;;;1.48;0.68;;;13.80;99.90;;;;;;4972616;28;20076;-64
2021/05/14 00:09:57;;;;;;;0.93;0.63;;;13.70;99.90;;;;;;4967252;28;20504;-64
2021/05/14 00:12:23;;;;;;;1.15;1.05;;;13.70;99.90;;;;;;4954805;29;20058;-64
2021/05/14 00:14:48;;;;;;;1.15;0.50;;;13.70;99.90;;;;;;4955425;29;20039;-64
2021/05/14 00:17:14;;;;;;;0.65;0.52;;;13.70;99.90;;;;;;4954372;29;20039;-64
2021/05/14 00:19:40;;;;;;;2.90;0.60;;;13.70;99.90;;;;;;4954038;29;20463;-64
2021/05/14 00:22:05;;;;;;;1.05;0.43;;;13.80;99.90;;;;;;4970420;28;20038;-63
2021/05/14 00:24:31;;;;;;;0.85;0.50;;;13.80;99.90;;;;;;4962222;28;20041;-63
2021/05/14 00:26:57;;;;;;;2.22;0.80;;;13.80;99.90;;;;;;4962760;28;20126;-63
2021/05/14 00:29:22;;;;;;;1.13;0.57;;;13.70;99.90;;;;;;4982676;28;20271;-68
2021/05/14 00:31:48;;;;;;;1.50;0.73;;;13.80;99.90;;;;;;4980877;28;20452;-63
2021/05/14 00:34:13;;;;;;;1.30;0.70;;;13.70;99.90;;;;;;4964203;28;20401;-64
2021/05/14 00:36:39;;;;;;;0.85;0.55;;;13.70;99.90;;;;;;4962949;28;20034;-64
2021/05/14 00:39:05;;;;;;;1.13;0.60;;;13.60;99.90;;;;;;4979589;28;20038;-66
2021/05/14 00:41:31;;;;;;;2.25;0.47;;;13.70;99.90;;;;;;4987500;28;20104;-65
2021/05/14 00:43:57;;;;;;;1.63;0.55;;;13.60;99.90;;;;;;4991603;28;20030;-64
2021/05/14 00:46:24;;;;;;;1.42;0.57;;;13.60;99.90;;;;;;4973578;28;20682;-64
2021/05/14 00:48:49;;;;;;;3.03;0.50;;;13.60;99.90;;;;;;4992606;28;20031;-64
2021/05/14 00:51:15;;;;;;;0.75;0.50;;;13.50;99.90;;;;;;4973863;28;20125;-64
2021/05/14 00:53:41;;;;;;;0.70;0.50;;;13.50;99.90;;;;;;4974863;28;20489;-64
2021/05/14 00:56:07;;;;;;;4.30;0.68;;;13.50;99.90;;;;;;4992093;28;20030;-64
2021/05/14 00:58:33;;;;;;;0.95;0.40;;;13.60;99.90;;;;;;4975149;28;20027;-64
2021/05/14 01:00:58;;;;;;;3.65;1.23;;;13.60;99.90;;;;;;4974568;28;20343;-64
2021/05/14 01:03:24;;;;;;;2.35;0.70;;;13.60;99.90;;;;;;4992000;28;20022;-64
2021/05/14 01:05:50;;;;;;;2.40;0.60;;;13.60;99.90;;;;;;4958078;28;20038;-64
2021/05/14 01:08:15;;;;;;;2.55;0.75;;;13.60;99.90;;;;;;4954899;28;20027;-65
2021/05/14 01:10:42;;;;;;;1.77;0.50;;;13.50;99.90;;;;;;4972896;28;20161;-64
2021/05/14 01:13:07;;;;;;;1.48;0.95;;;13.60;99.90;;;;;;4954438;28;20067;-64
2021/05/14 01:15:33;;;;;;;0.63;0.45;;;13.50;99.90;;;;;;4955380;28;20421;-64
2021/05/14 01:17:59;;;;;;;1.73;0.70;;;13.50;99.90;;;;;;4972581;28;20043;-63
2021/05/14 01:20:27;;;;;;;1.45;0.65;;;13.30;99.90;;;;;;4954603;28;20285;-63
2021/05/14 01:22:53;;;;;;;3.15;0.70;;;13.20;99.90;;;;;;4955155;28;20027;-63
2021/05/14 01:25:19;;;;;;;0.70;0.60;;;13.20;99.90;;;;;;4954128;28;20396;-63
2021/05/14 01:27:44;;;;;;;1.75;1.00;;;13.20;99.90;;;;;;4955029;28;20019;-63
2021/05/14 01:30:11;;;;;;;2.05;0.70;;;13.30;99.90;;;;;;4971601;28;20026;-62
2021/05/14 01:32:37;;;;;;;2.13;1.17;;;13.10;99.90;;;;;;4954973;28;20023;-63
2021/05/14 01:35:02;;;;;;;0.80;0.60;;;13.20;99.90;;;;;;4954850;28;20063;-63
2021/05/14 01:37:28;;;;;;;1.70;0.98;;;13.10;99.90;;;;;;4971256;28;20039;-64
2021/05/14 01:39:54;;;;;;;3.95;0.85;;;13.20;99.90;;;;;;4973090;28;20023;-64
2021/05/14 01:42:19;;;;;;;0.82;0.80;;;13.30;99.90;;;;;;4972291;28;20038;-64
2021/05/14 01:44:45;;;;;;;2.97;0.60;;;13.20;99.90;;;;;;4972690;28;20054;-63
2021/05/14 01:47:16;;;;;;;1.27;0.68;;;13.10;99.90;;;;;;4971736;28;20061;-63
2021/05/14 01:49:42;;;;;;;0.98;0.57;;;13.10;99.90;;;;;;4972007;28;20375;-63
2021/05/14 01:52:08;;;;;;;1.10;0.60;;;13.10;99.90;;;;;;4953959;28;20185;-67
2021/05/14 01:54:33;;;;;;;5.97;0.88;;;13.10;99.90;;;;;;4954649;28;20065;-62
2021/05/14 01:56:59;;;;;;;1.00;0.70;;;13.00;99.90;;;;;;4971681;28;20069;-63
2021/05/14 01:59:24;;;;;;;3.90;0.85;;;13.00;99.90;;;;;;4971284;28;20052;-63
2021/05/14 02:01:50;;;;;;;1.17;0.88;;;13.00;99.90;;;;;;4954525;28;20194;-66
2021/05/14 02:04:16;;;;;;;0.65;0.55;;;13.00;99.90;;;;;;4953877;28;20559;-64
2021/05/14 02:06:41;;;;;;;2.60;0.80;;;13.10;99.90;;;;;;4971735;28;20026;-62
2021/05/14 02:09:08;;;;;;;1.05;0.70;;;13.10;99.90;;;;;;4954380;28;20022;-82
2021/05/14 02:11:34;;;;;;;1.23;0.60;;;13.10;99.90;;;;;;4971873;28;20110;-62
2021/05/14 02:13:59;;;;;;;3.75;0.55;;;13.10;99.90;;;;;;4954215;28;20448;-64
2021/05/14 02:16:25;;;;;;;1.05;0.60;;;13.10;99.90;;;;;;4971006;28;20025;-62
2021/05/14 02:18:51;;;;;;;2.85;0.75;;;13.00;99.90;;;;;;4971594;28;20053;-62
2021/05/14 02:21:17;;;;;;;0.93;0.60;;;12.90;99.90;;;;;;4971028;28;20117;-62
2021/05/14 02:23:42;;;;;;;0.60;0.50;;;13.00;99.90;;;;;;4953853;28;20124;-63
2021/05/14 02:26:09;;;;;;;1.25;0.82;;;13.00;99.90;;;;;;4971417;28;20049;-81
2021/05/14 02:28:35;;;;;;;0.98;0.45;;;12.90;99.90;;;;;;4971035;28;20130;-63
2021/05/14 02:31:01;;;;;;;0.90;0.52;;;12.60;99.90;;;;;;4971113;28;20022;-64
2021/05/14 02:33:28;;;;;;;1.95;0.45;;;12.50;99.90;;;;;;4953409;28;20073;-64
2021/05/14 02:35:54;;;;;;;0.80;0.55;;;12.60;99.90;;;;;;4971037;28;20033;-64
2021/05/14 02:38:20;;;;;;;2.45;0.80;;;12.50;99.90;;;;;;4952692;28;20474;-64
2021/05/14 02:40:46;;;;;;;1.50;0.60;;;12.60;99.90;;;;;;4953829;28;20117;-64
2021/05/14 02:43:11;;;;;;;2.92;0.65;;;12.60;99.90;;;;;;4953048;28;20019;-65
2021/05/14 02:45:38;;;;;;;1.88;0.57;;;12.50;99.90;;;;;;4953667;28;20065;-64
2021/05/14 02:48:05;;;;;;;1.05;0.60;;;12.60;99.90;;;;;;4971217;28;20417;-64
2021/05/14 02:50:31;;;;;;;0.80;0.65;;;12.50;99.90;;;;;;4970948;28;20030;-63
2021/05/14 02:52:56;;;;;;;0.80;0.50;;;12.40;99.90;;;;;;4954152;28;20029;-63
2021/05/14 02:55:22;;;;;;;0.80;0.55;;;12.50;99.90;;;;;;4970866;28;20026;-64
2021/05/14 02:57:48;;;;;;;1.45;0.50;;;12.50;99.90;;;;;;4970901;28;20089;-64
2021/05/14 03:00:14;;;;;;;1.27;0.77;;;12.60;99.90;;;;;;4970735;28;20454;-64
2021/05/14 03:02:40;;;;;;;1.83;0.70;;;12.60;99.90;;;;;;4953941;28;20023;-64
2021/05/14 03:05:07;;;;;;;0.35;0.20;;;12.70;99.90;;;;;;4957800;28;20027;-64
2021/05/14 03:07:32;;;;;;;0.77;0.40;;;12.50;99.90;;;;;;4973719;28;20023;-69
2021/05/14 03:09:58;;;;;;;2.50;0.50;;;12.50;99.90;;;;;;4974306;28;20041;-63
2021/05/14 03:12:25;;;;;;;1.55;0.70;;;12.40;99.90;;;;;;4956762;28;20421;-66
2021/05/14 03:14:51;;;;;;;1.23;0.40;;;12.30;99.90;;;;;;4956629;28;20125;-64
2021/05/14 03:17:16;;;;;;;2.08;0.68;;;12.30;99.90;;;;;;4974212;28;20101;-64
2021/05/14 03:19:42;;;;;;;1.70;0.50;;;12.10;99.90;;;;;;4974881;28;20038;-64
2021/05/14 03:22:07;;;;;;;2.42;0.65;;;12.10;99.90;;;;;;4957110;28;20030;-63
2021/05/14 03:24:33;;;;;;;3.47;0.93;;;12.00;99.90;;;;;;4956533;28;20057;-63
2021/05/14 03:26:59;;;;;;;1.50;0.80;;;11.90;99.90;;;;;;4957221;28;20023;-64
2021/05/14 03:29:24;;;;;;;3.78;0.75;;;11.80;99.90;;;;;;4956958;28;20057;-64
2021/05/14 03:31:50;;;;;;;1.10;0.68;;;11.80;99.90;;;;;;4957986;28;20023;-64
2021/05/14 03:34:15;;;;;;;1.52;0.80;;;11.60;99.90;;;;;;4957289;28;20031;-64
2021/05/14 03:36:41;;;;;;;1.38;0.80;;;11.80;99.90;;;;;;4957601;28;20027;-66
2021/05/14 03:39:11;;;;;;;2.17;0.68;;;11.80;99.90;;;;;;4974858;28;20066;-63
2021/05/14 03:42:12;;;;;;;0.98;0.65;;;11.70;99.90;;;;;;4957167;28;20034;-63
2021/05/14 03:44:38;;;;;;;1.10;0.77;;;11.70;99.90;;;;;;4974918;28;20321;-64
2021/05/14 03:47:04;;;;;;;3.10;1.00;;;11.70;99.90;;;;;;4974912;28;20030;-64
2021/05/14 03:49:30;;;;;;;0.98;0.63;;;11.70;99.90;;;;;;4974017;28;20431;-63
2021/05/14 03:51:56;;;;;;;0.80;0.70;;;11.80;99.90;;;;;;4974483;28;20530;-66
2021/05/14 03:54:22;;;;;;;4.68;0.80;;;11.50;99.90;;;;;;4973967;28;20073;-64
2021/05/14 03:56:48;;;;;;;1.17;0.80;;;11.50;99.90;;;;;;4957170;28;20030;-64
2021/05/14 03:59:15;;;;;;;3.92;1.17;;;11.50;99.90;;;;;;4973978;28;20049;-73
2021/05/14 04:01:40;;;;;;;2.10;0.90;;;11.50;99.90;;;;;;4957038;28;20035;-64
2021/05/14 04:04:06;;;;;;;2.70;1.05;;;11.50;99.90;;;;;;4956975;28;20389;-64
2021/05/14 04:06:32;;;;;;;2.70;1.17;;;11.40;99.90;;;;;;4973971;28;20031;-65
2021/05/14 04:08:57;;;;;;;2.35;1.10;;;11.40;99.90;;;;;;4974420;28;20306;-64
2021/05/14 04:16:51;;;;;;;1.20;0.70;;;11.20;99.90;;;;;;4973929;28;20445;-65
2021/05/14 04:19:18;;;;;;;1.58;1.05;;;11.10;99.90;;;;;;4973910;28;20113;-63
2021/05/14 04:21:43;;;;;;;3.63;1.00;;;11.00;99.90;;;;;;4956726;28;20031;-64
2021/05/14 04:24:09;;;;;;;1.45;0.93;;;11.20;99.90;;;;;;4974498;28;20069;-64
2021/05/14 04:26:35;;;;;;;1.90;1.02;;;11.10;99.90;;;;;;4973748;28;20713;-64
2021/05/14 04:29:00;;;;;;;3.88;1.00;;;11.00;99.90;;;;;;4957105;28;20033;-64
2021/05/14 04:31:26;;;;;;;0.95;0.77;;;11.00;99.90;;;;;;4956486;28;20461;-64
2021/05/14 04:33:52;;;;;;;3.10;0.80;;;11.00;99.90;;;;;;4974083;28;20053;-64
2021/05/14 04:36:17;;;;;;;1.08;0.80;;;11.00;99.90;;;;;;4956235;28;20141;-66
2021/05/14 04:38:43;;;;;;;3.47;1.23;;;11.10;99.90;;;;;;4974116;28;20070;-65
2021/05/14 04:41:09;;;;;;;1.40;0.93;;;11.00;99.90;;;;;;4956486;28;20035;-64
2021/05/14 04:43:34;;;;;;;0.98;0.77;;;11.00;99.90;;;;;;4973013;28;20352;-65
2021/05/14 04:46:00;;;;;;;1.60;0.90;;;11.20;99.90;;;;;;4973476;28;20043;-64
2021/05/14 04:48:26;;;;;;;1.77;0.90;;;11.30;99.90;;;;;;4955361;28;20026;-64
2021/05/14 04:50:51;;;;;;;4.47;1.25;;;11.30;99.90;;;;;;4956165;28;20033;-65
2021/05/14 04:53:18;;;;;;;2.17;1.08;;;11.30;99.90;;;;;;4973108;28;20389;-82
2021/05/14 04:55:44;;;;;;;2.08;1.30;;;11.20;99.90;;;;;;4956364;28;20077;-65
2021/05/14 04:58:10;;;;;;;1.42;1.13;;;11.20;99.90;;;;;;4940090;28;20510;-64
2021/05/14 05:00:35;;;;;;;6.82;1.20;;;11.30;99.90;;;;;;4955216;28;20112;-64
2021/05/14 05:03:01;;;;;;;3.53;1.00;;;11.20;99.90;;;;;;4956159;28;20348;-64
2021/05/14 05:05:27;;;;;;;1.05;0.90;;;11.10;99.90;;;;;;4954823;28;20042;-65
2021/05/14 05:07:53;;;;;;;5.25;1.30;;;11.20;99.90;;;;;;4972843;28;20027;-64
2021/05/14 05:10:20;;;;;;;3.30;1.40;;;11.20;99.90;;;;;;4955055;28;20027;-68
2021/05/14 05:12:46;;;;;;;1.60;1.17;;;11.10;99.90;;;;;;4955658;28;20345;-65
2021/05/14 05:15:14;;;;;;;3.38;1.27;;;11.20;99.90;;;;;;4972799;28;20027;-65
2021/05/14 05:17:40;;;;;;;1.85;0.82;;;11.40;99.90;;;;;;4952508;28;20062;-66
2021/05/14 05:20:06;;;;;;;3.30;1.23;;;11.30;99.90;;;;;;4935326;29;20023;-64
2021/05/14 05:22:32;;;;;;;2.13;1.20;;;11.30;99.90;;;;;;4935102;29;20027;-65
2021/05/14 05:24:58;;;;;;;1.70;1.20;;;11.50;99.90;;;;;;4934667;28;20145;-64
2021/05/14 05:27:24;;;;;;;2.15;1.40;;;11.50;99.90;;;;;;4942048;28;20154;-65
2021/05/14 05:29:49;;;;;;;2.08;1.23;;;11.50;99.90;;;;;;4973158;28;20133;-65
2021/05/14 05:32:15;;;;;;;3.22;1.40;;;11.60;99.90;;;;;;4955222;28;20046;-65
2021/05/14 05:34:40;;;;;;;2.20;1.52;;;11.60;99.90;;;;;;4954836;28;20033;-64
2021/05/14 05:37:06;;;;;;;1.65;1.00;;;11.60;99.90;;;;;;4955466;28;20205;-64
2021/05/14 05:39:32;;;;;;;3.13;1.25;;;11.80;99.90;;;;;;4954849;28;20038;-64
2021/05/14 05:41:58;;;;;;;1.73;1.23;;;12.00;99.90;;;;;;4955360;28;20023;-64
2021/05/14 05:44:23;;;;;;;2.33;1.17;;;11.90;99.90;;;;;;4972095;28;20286;-64
2021/05/14 05:46:50;;;;;;;3.28;0.98;;;11.80;99.90;;;;;;4972884;28;20022;-64
2021/05/14 05:49:16;;;;;;;1.75;1.20;;;11.80;99.90;;;;;;4972609;28;20042;-64
2021/05/14 05:51:41;;;;;;;3.08;1.38;;;12.10;99.90;;;;;;4954535;28;20027;-65
2021/05/14 05:54:08;;;;;;;3.67;1.10;;;12.10;99.90;;;;;;4972242;28;20022;-65
2021/05/14 05:56:34;;;;;;;5.38;1.33;;;12.30;99.90;;;;;;4971880;28;20075;-64
2021/05/14 05:59:00;;;;;;;2.72;1.25;;;12.60;99.90;;;;;;4972510;28;20447;-69
2021/05/14 06:01:25;;;;;;;2.72;1.13;;;12.50;99.90;;;;;;4954560;28;20022;-64
2021/05/14 06:03:53;;;;;;;3.35;1.23;;;12.80;99.90;;;;;;4971758;28;20054;-65
2021/05/14 06:06:18;;;;;;;2.47;1.45;;;12.90;99.90;;;;;;4971554;28;20034;-64
2021/05/14 06:08:44;;;;;;;3.15;1.52;;;13.00;99.90;;;;;;4972008;28;20027;-64
2021/05/14 06:11:10;;;;;;;3.47;1.17;;;13.20;99.90;;;;;;4954465;28;20030;-64
2021/05/14 06:13:36;;;;;;;2.92;0.80;;;13.20;99.90;;;;;;4953644;28;20113;-64
2021/05/14 06:16:03;;;;;;;1.95;0.65;;;13.30;99.90;;;;;;4954486;28;20023;-65
2021/05/14 06:18:35;;;;;;;2.20;0.60;;;13.40;99.90;;;;;;4971333;28;20022;-64
2021/05/14 06:21:01;;;;;;;2.78;0.80;;;13.50;99.90;;;;;;4971773;28;20023;-64
2021/05/14 06:23:27;;;;;;;3.88;1.00;;;13.40;99.90;;;;;;4953024;28;20027;-65
2021/05/14 06:25:52;;;;;;;3.33;0.90;;;13.50;99.90;;;;;;4971898;28;20033;-64
2021/05/14 06:28:22;;;;;;;2.25;1.00;;;13.40;99.90;;;;;;4954342;28;20098;-64
2021/05/14 06:30:49;;;;;;;1.85;0.98;;;13.30;99.90;;;;;;4971670;28;20030;-66
2021/05/14 06:33:15;;;;;;;4.03;1.40;;;13.10;99.90;;;;;;4954316;28;20026;-64
2021/05/14 06:35:42;;;;;;;4.47;1.15;;;13.10;99.90;;;;;;4971616;28;20428;-64
2021/05/14 06:38:08;;;;;;;4.53;0.85;;;13.10;99.90;;;;;;4970674;28;20042;-64
2021/05/14 06:40:33;;;;;;;3.78;0.85;;;13.10;99.90;;;;;;4953636;28;20349;-64
2021/05/14 06:42:59;;;;;;;2.72;0.73;;;13.30;99.90;;;;;;4954325;28;20030;-64
2021/05/14 06:45:25;;;;;;;2.28;0.63;;;13.50;99.90;;;;;;4971087;28;20042;-67
2021/05/14 06:47:51;;;;;;;1.40;0.80;;;13.60;99.90;;;;;;4954127;28;20028;-65
2021/05/14 06:50:16;;;;;;;2.60;1.00;;;13.60;99.90;;;;;;4971432;28;20531;-64
2021/05/14 06:52:42;;;;;;;3.03;0.70;;;13.70;99.90;;;;;;4971359;28;20023;-65
2021/05/14 06:55:09;;;;;;;2.42;1.13;;;13.60;99.90;;;;;;4971488;28;20078;-65
2021/05/14 06:57:36;;;;;;;0.60;0.47;;;13.70;99.90;;;;;;4971288;28;20464;-66
2021/05/14 07:00:04;;;;;;;4.93;1.10;;;13.50;99.90;;;;;;4954005;28;20073;-66
2021/05/14 07:02:29;;;;;;;3.25;1.02;;;13.30;99.90;;;;;;4953439;28;20073;-65
2021/05/14 07:04:56;;;;;;;3.08;0.70;;;13.20;99.90;;;;;;4971156;28;20046;-65
2021/05/14 07:07:22;;;;;;;6.55;0.98;;;13.10;99.90;;;;;;4971534;28;20034;-65
2021/05/14 07:09:48;;;;;;;2.95;1.00;;;13.20;99.90;;;;;;4953459;28;20319;-65
2021/05/14 07:12:14;;;;;;;3.38;1.10;;;13.30;99.90;;;;;;4954012;28;20448;-65
2021/05/14 07:14:40;;;;;;;2.50;1.15;;;13.40;99.90;;;;;;4953701;28;20121;-66
2021/05/14 07:17:05;;;;;;;3.05;1.35;;;13.50;99.90;;;;;;4971313;28;20102;-65
2021/05/14 07:19:31;;;;;;;3.15;1.40;;;13.70;99.90;;;;;;4970980;28;20042;-65
2021/05/14 07:21:57;;;;;;;2.55;0.98;;;13.90;99.90;;;;;;4953648;28;20454;-65
2021/05/14 07:24:22;;;;;;;3.28;0.88;;;13.90;99.90;;;;;;4950317;28;20154;-66
2021/05/14 07:26:48;;;;;;;3.83;1.10;;;14.00;99.90;;;;;;4949797;29;20491;-65
2021/05/14 07:29:14;;;;;;;1.33;0.88;;;13.70;99.90;;;;;;4949949;29;20140;-65
2021/05/14 07:31:39;;;;;;;3.65;1.00;;;14.00;99.90;;;;;;4949290;29;20054;-68
2021/05/14 07:34:05;;;;;;;2.67;0.98;;;14.20;99.90;;;;;;4937616;29;20096;-65
2021/05/14 07:36:31;;;;;;;1.88;1.00;;;14.50;99.90;;;;;;4932705;29;20131;-65
2021/05/14 07:38:57;;;;;;;1.13;0.60;;;14.50;99.90;;;;;;4932930;29;20023;-65
2021/05/14 07:41:23;;;;;;;3.25;1.40;;;14.70;99.90;;;;;;4931472;29;20031;-65
2021/05/14 07:43:48;;;;;;;3.72;0.90;;;14.70;99.90;;;;;;4932318;29;20039;-65
2021/05/14 07:46:14;;;;;;;1.00;0.52;;;14.80;99.90;;;;;;4934371;29;20031;-65
2021/05/14 07:48:40;;;;;;;5.45;1.00;;;14.90;99.90;;;;;;4959733;28;20037;-70
2021/05/14 07:51:06;;;;;;;1.42;1.00;;;15.00;99.90;;;;;;4955732;28;20110;-66
2021/05/14 07:53:31;;;;;;;5.15;1.08;;;14.90;99.90;;;;;;4955162;29;20033;-64
2021/05/14 07:55:57;;;;;;;1.17;0.50;;;14.80;99.90;;;;;;4953573;29;20027;-63
2021/05/14 07:58:23;;;;;;;15.15;1.83;;;14.70;99.90;;;;;;4952769;29;20114;-62
2021/05/14 08:00:50;;;;;;;6.88;1.05;;;15.30;99.90;;;;;;4935164;29;20115;-61
2021/05/14 08:03:19;;;;;;;1.38;0.57;;;15.60;99.90;;;;;;4934563;29;20051;-61
2021/05/14 08:05:49;;;;;;;1.35;0.70;;;16.00;99.90;;;;;;4935655;29;20182;-61
2021/05/14 08:08:18;;;;;;;3.03;0.68;;;16.10;99.90;;;;;;4936012;29;20039;-62
2021/05/14 08:10:45;;;;;;;1.98;0.68;;;16.30;99.90;;;;;;4933693;29;20082;-60
2021/05/14 08:13:10;;;;;;;2.78;0.90;;;16.30;99.90;;;;;;4950597;29;20035;-62
2021/05/14 08:15:38;;;;;;;2.30;0.70;;;16.60;99.90;;;;;;4953801;29;20027;-60
2021/05/14 08:18:04;;;;;;;3.35;0.60;;;16.50;99.80;;;;;;4954532;29;20114;-60
2021/05/14 08:20:30;;;;;;;1.55;0.90;;;16.40;99.90;;;;;;4952760;29;20077;-62
2021/05/14 08:22:56;;;;;;;2.47;0.55;;;16.60;99.40;;;;;;4954421;29;20063;-61
2021/05/14 08:25:22;;;;;;;3.42;0.60;;;16.60;99.20;;;;;;4971949;28;20058;-61
2021/05/14 08:27:47;;;;;;;1.45;0.63;;;16.50;98.50;;;;;;4973580;28;20279;-61
2021/05/14 08:30:14;;;;;;;2.80;0.50;;;16.60;99.90;;;;;;4973583;28;20027;-61
2021/05/14 08:32:39;;;;;;;3.53;0.63;;;17.00;98.10;;;;;;4955432;28;20042;-61
2021/05/14 08:35:07;;;;;;;1.35;0.70;;;16.40;99.60;;;;;;4973225;28;20033;-62
2021/05/14 08:37:34;;;;;;;1.20;0.28;;;16.30;97.30;;;;;;4955731;28;20045;-64
2021/05/14 08:40:00;;;;;;;2.63;0.40;;;16.00;96.70;;;;;;4973422;28;20031;-63
2021/05/14 08:42:27;;;;;;;1.83;0.75;;;16.10;96.80;;;;;;4955727;28;20464;-62
2021/05/14 08:44:53;;;;;;;0.93;0.38;;;16.20;96.00;;;;;;4972654;28;20059;-63
2021/05/14 08:47:20;;;;;;;2.78;0.57;;;16.50;96.70;;;;;;4958072;28;20553;-62
2021/05/14 08:49:47;;;;;;;1.75;0.30;;;16.60;96.40;;;;;;4955321;28;20029;-63
2021/05/14 08:52:15;;;;;;;5.38;0.60;;;17.20;99.90;;;;;;4955241;28;20023;-63
2021/05/14 08:54:44;;;;;;;4.78;0.52;;;17.40;96.20;;;;;;4972542;28;20019;-63
2021/05/14 08:57:11;;;;;;;1.48;0.43;;;17.90;97.60;;;;;;4955245;28;20325;-61
2021/05/14 08:59:37;;;;;;;2.17;0.30;;;17.70;94.60;;;;;;4954670;28;20030;-61
2021/05/14 09:02:03;;;;;;;2.30;0.30;;;17.60;94.10;;;;;;4954466;28;20074;-62
2021/05/14 09:04:33;;;;;;;3.22;0.88;;;18.00;92.50;;;;;;4972835;28;20031;-62
2021/05/14 09:07:00;;;;;;;1.05;0.40;;;17.80;92.40;;;;;;4972737;28;20404;-62
2021/05/14 09:09:26;;;;;;;0.65;0.43;;;17.80;92.40;;;;;;4973032;28;20023;-62
2021/05/14 09:11:52;;;;;;;1.48;0.63;;;18.00;91.90;;;;;;4971850;28;20027;-61
2021/05/14 09:14:44;;;;;;;1.45;0.60;;;17.90;91.70;;;;;;4972429;28;20144;-61
2021/05/14 09:17:15;;;;;;;0.93;0.40;;;17.80;91.50;;;;;;4955198;28;20027;-62
2021/05/14 09:19:46;;;;;;;2.00;0.60;;;17.90;91.30;;;;;;4954410;28;20022;-62
2021/05/14 09:22:17;;;;;;;3.17;0.40;;;17.90;91.60;;;;;;4955019;28;20038;-62
2021/05/14 09:24:47;;;;;;;3.90;0.70;;;18.50;91.40;;;;;;4953961;28;20114;-62
2021/05/14 09:27:35;;;;;;;2.40;0.40;;;18.70;91.10;;;;;;4954976;28;20372;-61
2021/05/14 09:30:03;;;;;;;1.45;0.60;;;19.30;91.60;;;;;;4954780;28;20060;-62
2021/05/14 09:32:34;;;;;;;4.63;0.60;;;19.70;95.30;;;;;;4972106;28;20023;-61
2021/05/14 09:35:02;;;;;;;3.05;0.68;;;19.60;89.40;;;;;;4972170;28;20126;-61
2021/05/14 09:37:28;;;;;;;4.10;0.80;;;19.70;86.50;;;;;;4954715;28;20038;-62
2021/05/14 09:40:14;;;;;;;1.98;0.32;;;19.50;87.80;;;;;;4953594;28;20026;-61
2021/05/14 09:42:40;;;;;;;5.38;0.57;;;19.40;87.30;;;;;;4954039;28;20046;-62
2021/05/14 09:45:21;;;;;;;1.52;0.40;;;19.60;87.20;;;;;;4971877;28;20073;-61
2021/05/14 09:48:14;;;;;;;2.90;0.30;;;19.80;86.20;;;;;;4971316;28;20137;-61
2021/05/14 09:50:40;;;;;;;2.90;0.50;;;19.80;86.40;;;;;;4971488;28;20553;-61
2021/05/14 09:53:09;;;;;;;2.90;0.22;;;20.10;86.40;;;;;;4954327;28;20109;-62
2021/05/14 09:55:36;;;;;;;0.90;0.22;;;20.30;81.50;;;;;;4971871;28;20030;-63
2021/05/14 09:58:30;;;;;;;0.68;0.20;;;19.60;83.20;;;;;;4972002;28;20480;-62
2021/05/14 10:00:57;;;;;;;0.95;0.25;;;19.50;84.10;;;;;;4968538;28;20039;-62
2021/05/14 10:03:25;;;;;;;1.98;0.30;;;19.10;82.50;;;;;;4971446;28;20026;-62
2021/05/14 10:05:52;;;;;;;1.67;0.22;;;19.00;83.80;;;;;;4953213;28;20049;-62
2021/05/14 10:08:24;;;;;;;2.20;0.40;;;18.80;84.10;;;;;;4954212;28;20147;-63
2021/05/14 10:10:51;;;;;;;2.55;0.30;;;18.80;85.10;;;;;;4971453;28;20408;-62
2021/05/14 10:13:17;;;;;;;1.60;0.40;;;18.40;86.70;;;;;;4953894;28;20066;-62
2021/05/14 10:15:42;;;;;;;1.17;0.40;;;18.10;88.60;;;;;;4953610;28;20120;-62
2021/05/14 10:18:16;;;;;;;3.60;0.52;;;18.10;88.10;;;;;;4953869;28;20019;-62
2021/05/14 10:20:43;;;;;;;2.45;0.50;;;18.20;88.90;;;;;;4953358;28;20082;-61
2021/05/14 10:23:10;;;;;;;9.48;1.10;;;18.10;87.60;;;;;;4953589;28;20102;-61
2021/05/14 10:25:42;;;;;;;4.93;0.50;;;18.00;88.50;;;;;;4970110;28;20039;-62
2021/05/14 10:28:15;;;;;;;2.35;0.40;;;18.50;88.00;;;;;;4953793;28;20113;-61
2021/05/14 10:31:02;;;;;;;1.80;0.30;;;18.90;87.20;;;;;;4952560;28;20094;-63
2021/05/14 10:33:41;;;;;;;3.45;0.30;;;19.60;85.90;;;;;;4953295;28;20022;-61
2021/05/14 10:36:22;;;;;;;2.50;0.35;;;20.20;81.90;;;;;;4952910;28;20480;-61
2021/05/14 10:39:08;;;;;;;3.15;0.70;;;19.90;81.30;;;;;;4952781;28;20072;-65
2021/05/14 10:41:45;;;;;;;1.30;0.30;;;19.60;81.60;;;;;;4953155;28;20530;-62
2021/05/14 10:44:11;;;;;;;2.22;0.40;;;19.10;81.60;;;;;;4970375;28;20022;-61
2021/05/14 10:46:37;;;;;;;1.58;0.30;;;18.90;82.70;;;;;;4952270;28;20073;-74
2021/05/14 10:49:07;;;;;;;2.17;0.40;;;18.60;84.40;;;;;;4969924;28;20227;-61
2021/05/14 10:51:51;;;;;;;1.73;0.43;;;18.90;84.10;;;;;;4970601;28;20368;-61
2021/05/14 10:54:38;;;;;;;0.70;0.50;;;19.00;82.90;;;;;;4952532;28;20422;-61
2021/05/14 10:57:05;;;;;;;1.63;0.47;;;18.80;83.10;;;;;;4970315;28;20027;-62
2021/05/14 10:59:35;;;;;;;1.63;0.50;;;18.60;84.80;;;;;;4957114;28;20113;-62
2021/05/14 11:02:29;;;;;;;2.67;1.05;;;18.90;85.40;;;;;;4988874;28;20042;-61
2021/05/14 11:04:59;;;;;;;3.15;0.50;;;18.80;85.10;;;;;;4970914;28;20103;-63
2021/05/14 11:07:42;;;;;;;1.17;0.40;;;18.80;83.10;;;;;;4971494;28;20108;-61
2021/05/14 11:10:14;;;;;;;10.13;0.60;;;18.40;84.50;;;;;;4971191;28;20042;-62
2021/05/14 11:12:41;;;;;;;2.95;0.45;;;18.80;84.20;;;;;;4989044;28;20070;-61
2021/05/14 11:15:31;;;;;;;1.90;0.63;;;18.90;82.50;;;;;;4971929;28;20030;-61
2021/05/14 11:18:06;;;;;;;5.35;0.55;;;19.20;81.80;;;;;;4979096;28;20043;-61
2021/05/14 11:20:51;;;;;;;1.70;0.30;;;19.20;82.20;;;;;;4972232;28;20407;-61
2021/05/14 11:23:38;;;;;;;0.45;0.30;;;19.30;81.00;;;;;;4989012;28;20495;-63
2021/05/14 11:26:08;;;;;;;1.95;0.35;;;19.40;80.60;;;;;;4993888;28;20034;-61
2021/05/14 11:28:59;;;;;;;0.50;0.10;;;19.70;79.50;;;;;;4975423;28;20121;-61
2021/05/14 11:31:25;;;;;;;4.60;0.43;;;19.90;78.70;;;;;;4975554;28;20058;-61
2021/05/14 11:33:53;;;;;;;2.10;0.82;;;19.70;78.80;;;;;;4974867;28;20120;-62
2021/05/14 11:36:22;;;;;;;1.83;0.50;;;19.70;78.90;;;;;;4975104;28;20023;-61
2021/05/14 11:38:52;;;;;;;2.90;0.38;;;19.50;78.60;;;;;;4992848;28;20115;-63
2021/05/14 11:41:32;;;;;;;2.65;0.30;;;19.50;78.30;;;;;;4993502;28;20061;-62
2021/05/14 11:44:04;;;;;;;1.38;0.28;;;19.50;78.50;;;;;;4992347;28;20041;-61
2021/05/14 11:46:32;;;;;;;0.93;0.20;;;19.40;79.60;;;;;;4975201;28;20138;-61
2021/05/14 11:49:08;;;;;;;1.25;0.43;;;19.40;80.50;;;;;;4974720;28;20037;-61
2021/05/14 11:51:35;;;;;;;1.63;0.40;;;19.20;81.00;;;;;;4975701;28;20051;-62
2021/05/14 11:54:11;;;;;;;2.85;0.35;;;19.30;80.50;;;;;;4974744;28;20062;-62
2021/05/14 11:56:37;;;;;;;1.55;0.22;;;19.20;79.20;;;;;;4993321;28;20026;-61
2021/05/14 11:59:03;;;;;;;4.70;0.43;;;19.00;79.70;;;;;;4974798;28;20052;-61
2021/05/14 12:01:38;;;;;;;1.80;0.80;;;19.00;79.80;;;;;;4993514;28;20428;-61
2021/05/14 12:04:04;;;;;;;1.02;0.22;;;19.10;81.00;;;;;;4992416;28;20034;-63
2021/05/14 12:06:30;;;;;;;5.00;0.40;;;19.20;79.70;;;;;;4974927;28;20480;-61
2021/05/14 12:08:56;;;;;;;2.95;1.75;;;19.20;79.30;;;;;;4992337;28;20030;-62
2021/05/14 12:11:22;;;;;;;2.80;0.80;;;19.10;80.20;;;;;;4992642;28;20511;-62
2021/05/14 12:13:47;;;;;;;2.35;0.68;;;19.30;81.00;;;;;;4992108;28;20128;-50
2021/05/14 12:16:15;;;;;;;0.80;0.43;;;19.50;85.40;;;;;;4992546;28;20100;-50
2021/05/14 12:18:48;;;;;;;2.20;0.28;;;19.90;89.40;;;;;;4992719;28;20033;-53
2021/05/14 12:21:24;;;;;;;4.28;0.93;;;20.70;86.10;;;;;;4992509;28;20499;-51
2021/05/14 12:23:50;;;;;;;3.40;0.60;;;21.40;78.20;;;;;;4974122;28;20058;-52
2021/05/14 12:26:16;;;;;;;2.95;0.50;;;21.20;81.80;;;;;;4992173;28;20034;-52
2021/05/14 12:28:46;;;;;;;2.83;0.30;;;21.10;83.30;;;;;;4968244;28;20473;-63
2021/05/14 12:31:22;;;;;;;9.77;0.80;;;21.00;81.20;;;;;;4963521;28;20492;-53
2021/05/14 12:33:49;;;;;;;1.10;0.30;;;21.10;83.20;;;;;;4956251;28;20477;-51
2021/05/14 12:36:21;;;;;;;3.78;0.20;;;20.70;77.30;;;;;;4981792;28;20031;-50
2021/05/14 12:38:49;;;;;;;3.08;0.35;;;20.30;78.10;;;;;;4983688;28;20202;-51
2021/05/14 12:41:32;;;;;;;2.78;0.57;;;20.30;80.00;;;;;;4962361;28;20038;-55
2021/05/14 12:44:16;;;;;;;1.83;0.25;;;20.40;79.20;;;;;;4961964;28;20491;-50
2021/05/14 12:46:59;;;;;;;1.35;0.32;;;20.20;79.50;;;;;;4960599;28;20155;-50
2021/05/14 12:49:26;;;;;;;2.85;0.10;;;20.30;80.30;;;;;;4963863;28;20431;-51
2021/05/14 12:52:03;;;;;;;7.32;0.60;;;20.00;77.50;;;;;;4973343;28;20025;-52
2021/05/14 12:54:31;;;;;;;1.52;0.28;;;19.70;79.50;;;;;;4992005;28;20046;-52
2021/05/14 12:56:57;;;;;;;5.32;0.50;;;19.60;81.60;;;;;;4991474;28;20022;-53